sensor_id;sensor_type;location;lat;lon;timestamp;temperature;humidity
41080;DHT22;26826;50.718;7.114;2024-01-06T00:02:19;7.30;99.90
41080;DHT22;26826;50.718;7.114;2024-01-06T00:12:20;7.30;99.90
41080;DHT22;26826;50.718;7.114;2024-01-06T00:22:20;7.20;99.90
41080;DHT22;26826;50.718;7.114;2024-01-06T00:32:21;7.20;99.90
41080;DHT22;26826;50.718;7.114;2024-01-06T00:42:21;7.20;99.90
41080;DHT22;26826;50.718;7.114;2024-01-06T00:52:22;7.20;99.90
41080;DHT22;26826;50.718;7.114;2024-01-06T01:02:22;7.20;99.90
41080;DHT22;26826;50.718;7.114;2024-01-06T01:12:23;7.20;99.90
41080;DHT22;26826;50.718;7.114;2024-01-06T01:22:23;7.20;99.90
41080;DHT22;26826;50.718;7.114;2024-01-06T01:32:24;7.20;99.90
41080;DHT22;26826;50.718;7.114;2024-01-06T01:42:24;7.20;99.90
41080;DHT22;26826;50.718;7.114;2024-01-06T01:52:25;7.20;99.90
41080;DHT22;26826;50.718;7.114;2024-01-06T02:02:25;7.20;99.90
41080;DHT22;26826;50.718;7.114;2024-01-06T02:12:25;7.10;99.90
41080;DHT22;26826;50.718;7.114;2024-01-06T02:22:26;7.00;99.90
41080;DHT22;26826;50.718;7.114;2024-01-06T02:32:26;6.80;99.90
41080;DHT22;26826;50.718;7.114;2024-01-06T02:42:27;6.80;99.90
41080;DHT22;26826;50.718;7.114;2024-01-06T02:52:27;6.80;99.90
41080;DHT22;26826;50.718;7.114;2024-01-06T03:02:28;6.70;99.90
41080;DHT22;26826;50.718;7.114;2024-01-06T03:12:28;6.80;99.90
41080;DHT22;26826;50.718;7.114;2024-01-06T03:22:28;6.80;99.90
41080;DHT22;26826;50.718;7.114;2024-01-06T03:32:29;6.70;99.90
41080;DHT22;26826;50.718;7.114;2024-01-06T03:42:29;6.60;99.90
41080;DHT22;26826;50.718;7.114;2024-01-06T03:52:30;6.60;99.90
41080;DHT22;26826;50.718;7.114;2024-01-06T04:02:30;6.50;99.90
41080;DHT22;26826;50.718;7.114;2024-01-06T04:12:31;6.60;99.90
41080;DHT22;26826;50.718;7.114;2024-01-06T04:22:31;6.60;99.90
41080;DHT22;26826;50.718;7.114;2024-01-06T04:32:32;6.50;99.90
41080;DHT22;26826;50.718;7.114;2024-01-06T04:42:32;6.50;99.90
41080;DHT22;26826;50.718;7.114;2024-01-06T04:52:33;6.60;99.90
41080;DHT22;26826;50.718;7.114;2024-01-06T05:02:33;6.70;99.90
41080;DHT22;26826;50.718;7.114;2024-01-06T05:12:34;6.70;99.90
41080;DHT22;26826;50.718;7.114;2024-01-06T05:22:34;6.70;99.90
41080;DHT22;26826;50.718;7.114;2024-01-06T05:32:36;6.70;99.90
41080;DHT22;26826;50.718;7.114;2024-01-06T05:42:37;6.60;99.90
41080;DHT22;26826;50.718;7.114;2024-01-06T05:52:37;6.60;99.90
41080;DHT22;26826;50.718;7.114;2024-01-06T06:02:37;6.60;99.90
41080;DHT22;26826;50.718;7.114;2024-01-06T06:12:39;6.50;99.90
41080;DHT22;26826;50.718;7.114;2024-01-06T06:22:39;6.50;99.90
41080;DHT22;26826;50.718;7.114;2024-01-06T06:32:40;6.50;99.90
41080;DHT22;26826;50.718;7.114;2024-01-06T06:42:40;6.40;99.90
41080;DHT22;26826;50.718;7.114;2024-01-06T06:52:41;6.10;99.90
41080;DHT22;26826;50.718;7.114;2024-01-06T07:02:42;6.00;99.90
41080;DHT22;26826;50.718;7.114;2024-01-06T07:12:43;5.90;99.90
41080;DHT22;26826;50.718;7.114;2024-01-06T07:22:43;5.80;99.90
41080;DHT22;26826;50.718;7.114;2024-01-06T07:32:44;5.60;99.90
41080;DHT22;26826;50.718;7.114;2024-01-06T07:42:44;5.60;99.90
41080;DHT22;26826;50.718;7.114;2024-01-06T07:52:45;5.50;99.90
41080;DHT22;26826;50.718;7.114;2024-01-06T08:02:45;5.50;99.90
41080;DHT22;26826;50.718;7.114;2024-01-06T08:12:46;5.40;99.90
41080;DHT22;26826;50.718;7.114;2024-01-06T08:22:46;5.50;99.90
41080;DHT22;26826;50.718;7.114;2024-01-06T08:32:46;5.30;99.90
41080;DHT22;26826;50.718;7.114;2024-01-06T08:42:47;5.20;99.90
41080;DHT22;26826;50.718;7.114;2024-01-06T08:52:47;5.40;99.90
41080;DHT22;26826;50.718;7.114;2024-01-06T09:02:48;5.40;99.90
41080;DHT22;26826;50.718;7.114;2024-01-06T09:12:49;5.30;99.90
41080;DHT22;26826;50.718;7.114;2024-01-06T09:22:49;5.30;99.90
41080;DHT22;26826;50.718;7.114;2024-01-06T09:32:50;5.30;99.90
41080;DHT22;26826;50.718;7.114;2024-01-06T09:42:51;5.40;99.90
41080;DHT22;26826;50.718;7.114;2024-01-06T09:52:51;5.30;99.90
41080;DHT22;26826;50.718;7.114;2024-01-06T10:02:54;5.20;99.90
41080;DHT22;26826;50.718;7.114;2024-01-06T10:12:55;5.30;99.90
41080;DHT22;26826;50.718;7.114;2024-01-06T10:22:55;5.30;99.90
41080;DHT22;26826;50.718;7.114;2024-01-06T10:33:08;5.40;99.90
41080;DHT22;26826;50.718;7.114;2024-01-06T10:43:08;5.50;99.90
41080;DHT22;26826;50.718;7.114;2024-01-06T10:53:10;5.60;99.90
41080;DHT22;26826;50.718;7.114;2024-01-06T11:03:12;5.60;99.90
41080;DHT22;26826;50.718;7.114;2024-01-06T11:13:20;5.50;99.90
41080;DHT22;26826;50.718;7.114;2024-01-06T11:23:21;5.50;99.90
41080;DHT22;26826;50.718;7.114;2024-01-06T11:33:21;5.30;99.90
41080;DHT22;26826;50.718;7.114;2024-01-06T11:43:22;5.40;99.90
41080;DHT22;26826;50.718;7.114;2024-01-06T11:53:26;5.40;99.90
41080;DHT22;26826;50.718;7.114;2024-01-06T12:03:28;5.20;99.90
41080;DHT22;26826;50.718;7.114;2024-01-06T12:13:30;5.20;99.90
41080;DHT22;26826;50.718;7.114;2024-01-06T12:23:30;5.30;99.90
41080;DHT22;26826;50.718;7.114;2024-01-06T12:33:31;5.30;99.90
41080;DHT22;26826;50.718;7.114;2024-01-06T12:43:32;5.20;99.90
41080;DHT22;26826;50.718;7.114;2024-01-06T12:53:33;5.20;99.90
41080;DHT22;26826;50.718;7.114;2024-01-06T13:03:33;5.10;99.90
41080;DHT22;26826;50.718;7.114;2024-01-06T13:13:34;5.10;99.90
41080;DHT22;26826;50.718;7.114;2024-01-06T13:23:34;5.00;99.90
41080;DHT22;26826;50.718;7.114;2024-01-06T13:33:35;5.00;99.90
41080;DHT22;26826;50.718;7.114;2024-01-06T13:43:35;5.00;99.90
41080;DHT22;26826;50.718;7.114;2024-01-06T13:53:36;5.00;99.90
41080;DHT22;26826;50.718;7.114;2024-01-06T14:03:36;4.80;99.90
41080;DHT22;26826;50.718;7.114;2024-01-06T14:13:37;4.80;99.90
41080;DHT22;26826;50.718;7.114;2024-01-06T14:23:37;4.70;99.90
41080;DHT22;26826;50.718;7.114;2024-01-06T14:33:37;4.70;99.90
41080;DHT22;26826;50.718;7.114;2024-01-06T14:43:38;4.50;99.90
41080;DHT22;26826;50.718;7.114;2024-01-06T14:53:38;4.40;99.90
41080;DHT22;26826;50.718;7.114;2024-01-06T15:03:39;4.40;99.90
41080;DHT22;26826;50.718;7.114;2024-01-06T15:13:39;4.30;99.90
41080;DHT22;26826;50.718;7.114;2024-01-06T15:23:40;4.20;99.90
41080;DHT22;26826;50.718;7.114;2024-01-06T15:33:40;4.10;99.90
41080;DHT22;26826;50.718;7.114;2024-01-06T15:43:42;4.00;99.90
41080;DHT22;26826;50.718;7.114;2024-01-06T15:53:42;3.90;99.90
41080;DHT22;26826;50.718;7.114;2024-01-06T16:03:43;3.90;99.90
41080;DHT22;26826;50.718;7.114;2024-01-06T16:13:43;3.80;99.90
41080;DHT22;26826;50.718;7.114;2024-01-06T16:23:44;3.80;99.90
41080;DHT22;26826;50.718;7.114;2024-01-06T16:33:44;3.70;99.90
41080;DHT22;26826;50.718;7.114;2024-01-06T16:43:45;3.60;99.90
41080;DHT22;26826;50.718;7.114;2024-01-06T16:53:45;3.60;99.90
41080;DHT22;26826;50.718;7.114;2024-01-06T17:03:47;3.50;99.90
41080;DHT22;26826;50.718;7.114;2024-01-06T17:13:47;3.40;99.90
41080;DHT22;26826;50.718;7.114;2024-01-06T17:23:48;3.20;99.90
41080;DHT22;26826;50.718;7.114;2024-01-06T17:33:51;3.20;99.90
41080;DHT22;26826;50.718;7.114;2024-01-06T17:43:51;3.10;99.90
41080;DHT22;26826;50.718;7.114;2024-01-06T17:53:55;3.10;99.90
41080;DHT22;26826;50.718;7.114;2024-01-06T18:03:55;3.00;99.90
41080;DHT22;26826;50.718;7.114;2024-01-06T18:13:56;3.00;99.90
41080;DHT22;26826;50.718;7.114;2024-01-06T18:23:56;3.20;99.90
41080;DHT22;26826;50.718;7.114;2024-01-06T18:33:57;3.00;99.90
41080;DHT22;26826;50.718;7.114;2024-01-06T18:43:57;3.00;99.90
41080;DHT22;26826;50.718;7.114;2024-01-06T18:53:58;2.90;99.90
41080;DHT22;26826;50.718;7.114;2024-01-06T19:03:58;2.80;99.90
41080;DHT22;26826;50.718;7.114;2024-01-06T19:13:59;2.80;99.90
41080;DHT22;26826;50.718;7.114;2024-01-06T19:23:59;2.70;99.90
41080;DHT22;26826;50.718;7.114;2024-01-06T19:34:00;2.70;99.90
41080;DHT22;26826;50.718;7.114;2024-01-06T19:44:01;2.70;99.90
41080;DHT22;26826;50.718;7.114;2024-01-06T19:54:03;2.70;99.90
41080;DHT22;26826;50.718;7.114;2024-01-06T20:04:03;2.60;99.90
41080;DHT22;26826;50.718;7.114;2024-01-06T20:14:04;2.50;99.90
41080;DHT22;26826;50.718;7.114;2024-01-06T20:24:05;2.40;99.90
41080;DHT22;26826;50.718;7.114;2024-01-06T20:34:05;2.40;99.90
41080;DHT22;26826;50.718;7.114;2024-01-06T20:44:06;2.40;99.90
41080;DHT22;26826;50.718;7.114;2024-01-06T20:54:06;2.50;99.90
41080;DHT22;26826;50.718;7.114;2024-01-06T21:04:07;2.50;99.90
41080;DHT22;26826;50.718;7.114;2024-01-06T21:14:08;2.50;99.90
41080;DHT22;26826;50.718;7.114;2024-01-06T21:24:08;2.50;99.90
41080;DHT22;26826;50.718;7.114;2024-01-06T21:34:09;2.50;99.90
41080;DHT22;26826;50.718;7.114;2024-01-06T21:44:09;2.50;99.90
41080;DHT22;26826;50.718;7.114;2024-01-06T21:54:10;2.50;99.90
41080;DHT22;26826;50.718;7.114;2024-01-06T22:04:11;2.50;99.90
41080;DHT22;26826;50.718;7.114;2024-01-06T22:14:12;2.40;99.90
41080;DHT22;26826;50.718;7.114;2024-01-06T22:24:13;2.40;99.90
41080;DHT22;26826;50.718;7.114;2024-01-06T22:34:14;2.40;99.90
41080;DHT22;26826;50.718;7.114;2024-01-06T22:44:14;2.50;99.90
41080;DHT22;26826;50.718;7.114;2024-01-06T22:54:15;2.50;99.90
41080;DHT22;26826;50.718;7.114;2024-01-06T23:04:15;2.50;99.90
41080;DHT22;26826;50.718;7.114;2024-01-06T23:14:16;2.60;99.90
41080;DHT22;26826;50.718;7.114;2024-01-06T23:24:16;2.60;99.90
41080;DHT22;26826;50.718;7.114;2024-01-06T23:34:18;2.60;99.90
41080;DHT22;26826;50.718;7.114;2024-01-06T23:44:19;2.60;99.90
41080;DHT22;26826;50.718;7.114;2024-01-06T23:54:19;2.60;99.90
